< Typhoon 200520 2005 Season Typhoon 200522 >
Typhoon 200521 (KAI-TAK)
General InformationTrack Information on Google MapsDetailed Wind InformationAccess Analytics MapList of All Images || NewsDisaster Info.WeblogTrackbackTyphoon FrontResourceGoogle EarthGE AnimationAtom FeedGeoJSON
Detalied Best Track (Time Zone = UTC)
Year Month Day Hour Lat. Long. Pressure (hPa) Wind (kt) Class Image Chart
2005 10 28 06 12.7 115.1 1004 0 2 Image Chart
2005 10 28 12 12.9 114.1 1004 0 2 Image Chart
2005 10 28 18 12.8 113.8 1002 0 2 Image Chart
2005 10 29 00 12.6 113.5 1000 35 3 Image Chart
2005 10 29 06 12.7 112.9 990 40 3 Image Chart
2005 10 29 12 12.9 112.8 985 45 3 Image Chart
2005 10 29 18 13.2 112.9 985 50 4 Image Chart
2005 10 30 00 14.0 112.9 975 60 4 Image Chart
2005 10 30 06 14.1 112.3 965 70 5 Image Chart
2005 10 30 12 14.1 112.2 955 75 5 Image Chart
2005 10 30 18 14.4 111.9 955 80 5 Image Chart
2005 10 31 00 14.6 111.8 950 80 5 Image Chart
2005 10 31 06 14.8 111.5 960 70 5 Image Chart
2005 10 31 12 14.9 111.0 965 65 5 Image Chart
2005 10 31 18 15.1 110.7 970 60 4 Image Chart
2005 11 1 00 15.4 110.0 975 60 4 Image Chart
2005 11 1 06 15.8 109.2 980 55 4 Image Chart
2005 11 1 12 16.4 108.5 985 50 4 Image Chart
2005 11 1 18 16.9 108.0 994 40 3 Image Chart
2005 11 2 00 17.4 107.4 1000 35 3 Image Chart
2005 11 2 06 18.0 106.5 1004 0 2 Image Chart
Japan Meteorological Agency Best Track Data | Correction Date : 2005-12-19
< Typhoon 200520 2005 Season Typhoon 200522 >

Help